D52 weather

Geneseo Airport
Geneseo, New York, United States

Public forecast

Using degrees Fahrenheit for public forecast. Weather courtesy of forecast.io.

Closest aviation weather report (METAR) to Geneseo Airport

Closest report is Dansville Municipal Airport, 14.8 nm (27.4 km) SSE. Retrieved 2020/07/02 10:54 UTC (54 minutes ago):

KDSV 021054Z AUTO 14004KT 10SM CLR 17/16 A2996 RMK AO2 SLP150 T01720156

Closest aviation forecast (TAF) to Geneseo Airport

Closest forecast is Greater Rochester International Airport, 20.6 nm (38.2 km) NNE. Retrieved 2020/07/02 06:33 UTC (5 hours ago):

TAF KROC 020530Z 0206/0306 23005KT P6SM SKC FM021000 26007KT P6SM FEW250 FM021700 29009KT P6SM FEW250 FM022300 27010G18KT P6SM FEW250 FM030000 27009KT P6SM SCT200